createdAt,value
2023-01-29T00:00:12.154Z,22.30
2023-01-29T00:02:59.814Z,20.33
2023-01-29T00:05:47.068Z,21.08
2023-01-29T00:08:36.375Z,22.23
2023-01-29T00:11:25.505Z,23.13
2023-01-29T00:14:13.421Z,21.60
2023-01-29T00:17:00.766Z,22.23
2023-01-29T00:19:47.979Z,22.13
2023-01-29T00:22:35.220Z,23.27
2023-01-29T00:25:24.155Z,22.85
2023-01-29T00:28:11.547Z,23.95
2023-01-29T00:30:59.028Z,24.73
2023-01-29T00:33:46.584Z,23.80
2023-01-29T00:36:33.761Z,21.15
2023-01-29T00:39:31.404Z,23.95
2023-01-29T00:42:42.707Z,26.15
2023-01-29T00:45:30.161Z,23.42
2023-01-29T00:48:17.596Z,23.55
2023-01-29T00:51:05.531Z,24.92
2023-01-29T00:53:54.598Z,24.50
2023-01-29T00:56:41.946Z,24.40
2023-01-29T00:59:31.105Z,23.00
2023-01-29T01:02:36.200Z,22.75
2023-01-29T01:05:24.026Z,24.92
2023-01-29T01:08:27.262Z,23.30
2023-01-29T01:11:17.434Z,24.38
2023-01-29T01:14:07.463Z,21.45
2023-01-29T01:16:59.560Z,23.45
2023-01-29T01:19:50.061Z,21.23
2023-01-29T01:22:40.492Z,22.42
2023-01-29T01:25:30.876Z,21.83
2023-01-29T01:28:21.304Z,22.58
2023-01-29T01:31:11.662Z,23.08
2023-01-29T01:34:03.446Z,20.10
2023-01-29T01:36:53.817Z,20.77
2023-01-29T01:39:44.353Z,22.08
2023-01-29T01:42:34.447Z,21.67
2023-01-29T01:45:28.563Z,22.27
2023-01-29T01:51:10.970Z,19.27
2023-01-29T01:54:06.303Z,21.50
2023-01-29T01:57:05.748Z,20.58
2023-01-29T02:00:00.547Z,19.98
2023-01-29T02:03:08.687Z,22.38
2023-01-29T02:06:14.966Z,23.30
2023-01-29T02:09:22.835Z,22.75
2023-01-29T02:12:15.429Z,21.88
2023-01-29T02:15:03.458Z,22.75
2023-01-29T02:17:51.452Z,24.05
2023-01-29T02:20:42.430Z,23.23
2023-01-29T02:24:00.850Z,21.83
2023-01-29T02:27:04.191Z,22.63
2023-01-29T02:30:00.534Z,20.52
2023-01-29T02:32:54.713Z,21.73
2023-01-29T02:35:46.135Z,24.23
2023-01-29T02:38:41.761Z,21.55
2023-01-29T02:41:35.161Z,23.17
2023-01-29T02:44:31.498Z,27.00
2023-01-29T02:47:24.445Z,21.50
2023-01-29T02:50:18.909Z,24.67
2023-01-29T02:53:11.967Z,23.70
2023-01-29T02:56:03.163Z,24.20
2023-01-29T02:58:54.440Z,23.27
2023-01-29T03:01:46.087Z,23.95
2023-01-29T03:04:42.594Z,21.40
2023-01-29T03:07:46.159Z,23.88
2023-01-29T03:10:38.902Z,22.90
2023-01-29T03:13:32.183Z,23.38
2023-01-29T03:16:26.015Z,24.03
2023-01-29T03:22:08.678Z,23.42
2023-01-29T03:25:15.675Z,24.17
2023-01-29T03:28:23.417Z,23.77
2023-01-29T03:31:31.644Z,22.88
2023-01-29T03:34:28.533Z,24.73
2023-01-29T03:37:21.994Z,24.30
2023-01-29T03:40:11.755Z,24.58
2023-01-29T03:43:10.264Z,23.00
2023-01-29T03:46:05.145Z,23.90
2023-01-29T03:48:59.009Z,23.73
2023-01-29T03:51:54.986Z,25.90
2023-01-29T03:54:52.588Z,24.23
2023-01-29T03:57:42.970Z,26.42
2023-01-29T04:00:35.458Z,26.52
2023-01-29T04:03:25.937Z,24.95
2023-01-29T04:06:17.951Z,24.60
2023-01-29T04:09:09.126Z,25.88
2023-01-29T04:12:04.915Z,24.35
2023-01-29T04:14:55.365Z,26.80
2023-01-29T04:17:46.740Z,25.13
2023-01-29T04:20:34.441Z,23.52
2023-01-29T04:23:23.831Z,25.70
2023-01-29T04:26:25.800Z,22.73
2023-01-29T04:29:27.867Z,22.80
2023-01-29T04:32:25.603Z,25.50
2023-01-29T04:35:24.441Z,25.25
2023-01-29T04:38:24.736Z,21.80
2023-01-29T04:41:21.142Z,21.42
2023-01-29T04:44:16.296Z,21.67
2023-01-29T04:47:14.176Z,22.70
2023-01-29T04:50:09.507Z,22.15
2023-01-29T04:53:01.845Z,20.77
2023-01-29T04:55:52.614Z,22.38
2023-01-29T04:58:43.455Z,23.08
2023-01-29T05:01:33.464Z,21.33
2023-01-29T05:04:23.193Z,21.70
2023-01-29T05:07:14.372Z,24.85
2023-01-29T05:10:02.144Z,21.60
2023-01-29T05:12:50.595Z,22.75
2023-01-29T05:15:39.982Z,22.92
2023-01-29T05:18:28.069Z,24.98
2023-01-29T05:21:16.922Z,23.02
2023-01-29T05:24:09.898Z,22.67
2023-01-29T05:27:14.734Z,25.40
2023-01-29T05:30:01.926Z,23.58
2023-01-29T05:32:49.529Z,23.27
2023-01-29T05:35:37.149Z,23.95
2023-01-29T05:38:26.693Z,23.60
2023-01-29T05:41:13.909Z,21.10
2023-01-29T05:44:01.581Z,23.95
2023-01-29T05:46:49.239Z,23.58
2023-01-29T05:49:38.753Z,23.10
2023-01-29T05:52:26.504Z,23.23
2023-01-29T05:55:15.532Z,26.58
2023-01-29T05:58:05.747Z,22.50
2023-01-29T06:00:53.433Z,24.40
2023-01-29T06:03:41.077Z,24.05
2023-01-29T06:06:28.626Z,24.42
2023-01-29T06:09:16.189Z,23.38
2023-01-29T06:12:06.480Z,22.80
2023-01-29T06:14:53.730Z,22.15
2023-01-29T06:17:41.187Z,22.52
2023-01-29T06:20:28.923Z,23.20
2023-01-29T06:23:16.616Z,23.95
2023-01-29T06:26:05.669Z,23.92
2023-01-29T06:28:54.420Z,24.27
2023-01-29T06:31:42.180Z,24.15
2023-01-29T06:34:29.494Z,23.33
2023-01-29T06:37:17.010Z,25.05
2023-01-29T06:40:04.694Z,23.40
2023-01-29T06:42:52.109Z,23.63
2023-01-29T06:45:48.173Z,23.00
2023-01-29T06:48:36.437Z,22.00
2023-01-29T06:51:24.615Z,23.15
2023-01-29T06:54:12.342Z,25.17
2023-01-29T06:56:59.685Z,22.58
2023-01-29T06:59:47.108Z,23.52
2023-01-29T07:02:35.504Z,23.40
2023-01-29T07:05:22.993Z,23.10
2023-01-29T07:08:10.705Z,21.80
2023-01-29T07:11:00.543Z,24.38
2023-01-29T07:13:47.938Z,22.23
2023-01-29T07:16:35.712Z,23.52
2023-01-29T07:19:25.090Z,20.80
2023-01-29T07:22:12.356Z,24.00
2023-01-29T07:25:00.062Z,23.13
2023-01-29T07:27:47.913Z,22.33
2023-01-29T07:30:35.557Z,23.13
2023-01-29T07:33:23.270Z,22.08
2023-01-29T07:36:13.468Z,23.13
2023-01-29T07:39:01.003Z,22.58
2023-01-29T07:41:48.548Z,22.33
2023-01-29T07:44:36.295Z,23.42
2023-01-29T07:47:24.000Z,23.17
2023-01-29T07:50:12.470Z,22.40
2023-01-29T07:53:01.507Z,24.02
2023-01-29T07:55:49.054Z,23.23
2023-01-29T07:58:36.840Z,20.88
2023-01-29T08:01:24.528Z,23.30
2023-01-29T08:04:12.018Z,25.58
2023-01-29T08:06:59.630Z,23.60
2023-01-29T08:09:48.667Z,24.90
2023-01-29T08:12:36.235Z,23.67
2023-01-29T08:15:24.223Z,24.38
2023-01-29T08:18:11.781Z,22.90
2023-01-29T08:21:02.698Z,21.92
2023-01-29T08:23:50.050Z,24.30
2023-01-29T08:26:39.033Z,22.23
2023-01-29T08:29:26.630Z,20.02
2023-01-29T08:32:14.243Z,23.05
2023-01-29T08:35:02.210Z,22.42
2023-01-29T08:37:55.993Z,24.23
2023-01-29T08:40:43.332Z,22.13
2023-01-29T08:43:32.202Z,25.15
2023-01-29T08:46:19.713Z,24.15
2023-01-29T08:49:07.170Z,23.50
2023-01-29T08:51:56.917Z,23.20
2023-01-29T08:54:44.626Z,21.73
2023-01-29T08:57:32.663Z,25.40
2023-01-29T09:00:22.420Z,24.52
2023-01-29T09:03:10.114Z,23.85
2023-01-29T09:05:57.626Z,22.60
2023-01-29T09:08:45.177Z,21.25
2023-01-29T09:11:32.835Z,25.67
2023-01-29T09:14:20.661Z,22.92
2023-01-29T09:17:09.453Z,19.25
2023-01-29T09:19:56.755Z,19.52
2023-01-29T09:22:44.515Z,21.15
2023-01-29T09:25:32.187Z,21.67
2023-01-29T09:28:19.874Z,22.95
2023-01-29T09:31:07.623Z,22.70
2023-01-29T09:33:56.507Z,22.77
2023-01-29T09:36:43.859Z,21.45
2023-01-29T09:39:31.267Z,41.15
2023-01-29T09:42:25.363Z,25.35
2023-01-29T09:45:17.015Z,36.10
2023-01-29T09:48:12.601Z,29.00
2023-01-29T09:51:06.370Z,23.70
2023-01-29T09:53:59.823Z,25.25
2023-01-29T09:56:49.512Z,26.83
2023-01-29T09:59:36.630Z,28.15
2023-01-29T10:02:44.202Z,33.63
2023-01-29T10:05:48.847Z,26.02
2023-01-29T10:08:48.655Z,24.70
2023-01-29T10:11:47.347Z,49.67
2023-01-29T10:14:39.581Z,38.17
2023-01-29T10:17:41.512Z,51.08
2023-01-29T10:20:59.313Z,35.55
2023-01-29T10:23:52.946Z,52.60
2023-01-29T10:26:41.843Z,32.67
2023-01-29T10:29:32.610Z,32.58
2023-01-29T10:32:23.468Z,38.80
2023-01-29T10:35:21.323Z,35.10
2023-01-29T10:38:22.557Z,30.65
2023-01-29T10:41:26.957Z,25.02
2023-01-29T10:44:26.049Z,105.25
2023-01-29T10:47:36.796Z,44.90
2023-01-29T10:50:37.530Z,32.50
2023-01-29T10:53:43.404Z,30.13
2023-01-29T10:56:57.100Z,29.55
2023-01-29T11:00:00.580Z,22.90
2023-01-29T11:02:50.380Z,23.92
2023-01-29T11:05:44.954Z,17.75
2023-01-29T11:08:38.546Z,26.80
2023-01-29T11:11:34.623Z,26.40
2023-01-29T11:14:26.364Z,25.15
2023-01-29T11:17:18.022Z,30.15
2023-01-29T11:20:07.363Z,24.85
2023-01-29T11:22:56.330Z,23.33
2023-01-29T11:25:54.007Z,34.88
2023-01-29T11:28:43.206Z,27.85
2023-01-29T11:31:38.302Z,25.52
2023-01-29T11:34:27.755Z,22.50
2023-01-29T11:37:17.904Z,25.58
2023-01-29T11:40:34.864Z,25.67
2023-01-29T11:43:29.239Z,21.92
2023-01-29T11:46:17.454Z,22.77
2023-01-29T11:49:20.332Z,24.00
2023-01-29T11:52:11.247Z,21.57
2023-01-29T11:55:02.341Z,24.48
2023-01-29T11:57:54.219Z,29.13
2023-01-29T12:00:46.314Z,24.15
2023-01-29T12:03:37.937Z,23.88
2023-01-29T12:06:35.024Z,28.70
2023-01-29T12:09:24.889Z,32.97
2023-01-29T12:12:28.860Z,23.83
2023-01-29T12:15:19.842Z,21.70
2023-01-29T12:18:13.328Z,33.80
2023-01-29T12:21:04.473Z,25.05
2023-01-29T12:23:58.356Z,26.73
2023-01-29T12:26:51.960Z,25.98
2023-01-29T12:29:47.209Z,22.50
2023-01-29T12:32:44.321Z,30.15
2023-01-29T12:35:36.606Z,34.15
2023-01-29T12:38:25.143Z,28.23
2023-01-29T12:41:27.393Z,30.85
2023-01-29T12:44:19.486Z,30.02
2023-01-29T12:47:12.385Z,27.70
2023-01-29T12:50:04.708Z,25.27
2023-01-29T12:52:55.151Z,28.08
2023-01-29T12:55:47.772Z,27.75
2023-01-29T12:58:41.039Z,28.17
2023-01-29T13:01:33.096Z,25.38
2023-01-29T13:04:36.567Z,30.40
2023-01-29T13:07:30.894Z,26.45
2023-01-29T13:13:16.518Z,36.45
2023-01-29T13:16:12.254Z,45.75
2023-01-29T13:19:00.691Z,37.15
2023-01-29T13:21:49.234Z,39.63
2023-01-29T13:24:42.340Z,29.40
2023-01-29T13:27:34.178Z,40.25
2023-01-29T13:30:29.793Z,42.88
2023-01-29T13:33:24.185Z,34.70
2023-01-29T13:36:17.161Z,29.55
2023-01-29T13:39:07.401Z,35.05
2023-01-29T13:41:58.014Z,31.48
2023-01-29T13:44:49.670Z,35.00
2023-01-29T13:47:39.861Z,34.85
2023-01-29T13:50:33.906Z,39.17
2023-01-29T13:53:25.740Z,32.55
2023-01-29T13:56:49.947Z,44.38
2023-01-29T13:59:53.227Z,28.38
2023-01-29T14:02:41.082Z,34.45
2023-01-29T14:05:41.164Z,30.33
2023-01-29T14:08:41.073Z,26.40
2023-01-29T14:11:37.804Z,36.67
2023-01-29T14:15:02.358Z,26.88
2023-01-29T14:18:03.813Z,43.35
2023-01-29T14:20:59.781Z,30.25
2023-01-29T14:23:48.687Z,29.52
2023-01-29T14:26:45.577Z,43.20
2023-01-29T14:29:39.779Z,36.58
2023-01-29T14:32:27.707Z,19.67
2023-01-29T14:35:19.493Z,17.00
2023-01-29T14:38:08.757Z,17.30
2023-01-29T14:41:08.775Z,15.90
2023-01-29T14:44:10.799Z,16.02
2023-01-29T14:46:58.206Z,14.98
2023-01-29T14:49:54.360Z,15.43
2023-01-29T14:52:44.551Z,15.43
2023-01-29T14:55:40.491Z,15.93
2023-01-29T14:58:37.425Z,15.52
2023-01-29T15:01:27.763Z,15.75
2023-01-29T15:04:19.288Z,15.07
2023-01-29T15:07:17.911Z,14.85
2023-01-29T15:10:23.538Z,15.55
2023-01-29T15:13:20.615Z,15.85
2023-01-29T15:16:15.951Z,14.98
2023-01-29T15:19:09.307Z,15.00
2023-01-29T15:22:04.065Z,15.77
2023-01-29T15:25:03.301Z,14.38
2023-01-29T15:27:51.541Z,15.55
2023-01-29T15:30:43.262Z,16.08
2023-01-29T15:33:33.339Z,14.90
2023-01-29T15:36:23.308Z,15.77
2023-01-29T15:39:17.304Z,15.60
2023-01-29T15:45:00.760Z,14.45
2023-01-29T15:47:49.644Z,14.50
2023-01-29T15:50:40.419Z,15.05
2023-01-29T15:53:32.100Z,15.63
2023-01-29T15:56:23.475Z,15.35
2023-01-29T15:59:17.983Z,16.65
2023-01-29T16:02:20.294Z,16.27
2023-01-29T16:05:15.689Z,15.68
2023-01-29T16:08:03.836Z,17.70
2023-01-29T16:10:53.181Z,16.73
2023-01-29T16:13:44.274Z,14.85
2023-01-29T16:16:32.126Z,16.13
2023-01-29T16:19:24.845Z,16.90
2023-01-29T16:22:16.219Z,15.95
2023-01-29T16:25:05.115Z,17.08
2023-01-29T16:27:52.679Z,14.02
2023-01-29T16:30:41.052Z,15.35
2023-01-29T16:33:35.068Z,15.80
2023-01-29T16:36:24.791Z,13.07
2023-01-29T16:39:20.552Z,15.05
2023-01-29T16:42:23.939Z,16.27
2023-01-29T16:45:27.447Z,15.93
2023-01-29T16:48:27.066Z,14.77
2023-01-29T16:51:16.369Z,14.70
2023-01-29T16:54:09.455Z,15.77
2023-01-29T16:57:02.091Z,14.50
2023-01-29T16:59:50.773Z,15.68
2023-01-29T17:02:40.337Z,13.45
2023-01-29T17:05:30.716Z,13.52
2023-01-29T17:08:23.665Z,13.95
2023-01-29T17:11:12.872Z,12.40
2023-01-29T17:14:02.369Z,13.18
2023-01-29T17:16:50.930Z,13.88
2023-01-29T17:19:38.177Z,13.52
2023-01-29T17:22:25.631Z,14.15
2023-01-29T17:25:16.009Z,13.07
2023-01-29T17:28:04.386Z,12.23
2023-01-29T17:31:05.554Z,14.40
2023-01-29T17:33:53.956Z,12.40
2023-01-29T17:36:41.664Z,12.35
2023-01-29T17:39:29.206Z,12.15
2023-01-29T17:42:16.810Z,12.00
2023-01-29T17:45:04.301Z,11.80
2023-01-29T17:47:52.868Z,10.93
2023-01-29T17:50:41.582Z,11.15
2023-01-29T17:53:44.367Z,10.48
2023-01-29T17:56:32.954Z,12.68
2023-01-29T17:59:21.178Z,11.25
2023-01-29T18:02:08.758Z,11.70
2023-01-29T18:05:18.773Z,11.48
2023-01-29T18:08:06.483Z,11.13
2023-01-29T18:10:53.862Z,12.50
2023-01-29T18:13:42.044Z,11.32
2023-01-29T18:16:31.275Z,11.93
2023-01-29T18:19:22.441Z,9.82
2023-01-29T18:22:13.514Z,10.02
2023-01-29T18:25:01.005Z,10.50
2023-01-29T18:27:48.571Z,10.13
2023-01-29T18:30:38.044Z,9.85
2023-01-29T18:33:25.964Z,10.02
2023-01-29T18:36:13.503Z,11.05
2023-01-29T18:39:02.571Z,8.68
2023-01-29T18:41:49.801Z,10.05
2023-01-29T18:44:37.012Z,10.48
2023-01-29T18:47:24.818Z,9.10
2023-01-29T18:50:13.047Z,10.85
2023-01-29T18:53:00.709Z,10.52
2023-01-29T18:55:57.053Z,9.70
2023-01-29T18:58:46.025Z,11.80
2023-01-29T19:01:40.204Z,12.02
2023-01-29T19:04:27.671Z,11.95
2023-01-29T19:07:16.228Z,12.35
2023-01-29T19:10:06.677Z,10.75
2023-01-29T19:12:55.342Z,12.63
2023-01-29T19:15:44.446Z,12.65
2023-01-29T19:18:32.125Z,12.10
2023-01-29T19:21:19.782Z,14.40
2023-01-29T19:24:10.061Z,12.38
2023-01-29T19:26:57.587Z,13.60
2023-01-29T19:29:46.573Z,13.60
2023-01-29T19:32:34.648Z,14.43
2023-01-29T19:35:21.654Z,14.40
2023-01-29T19:38:08.654Z,14.27
2023-01-29T19:40:56.336Z,14.60
2023-01-29T19:43:45.252Z,13.85
2023-01-29T19:46:34.215Z,14.98
2023-01-29T19:49:21.557Z,13.05
2023-01-29T19:52:15.074Z,16.52
2023-01-29T19:55:02.831Z,15.10
2023-01-29T19:57:52.805Z,13.55
2023-01-29T20:00:39.939Z,14.02
2023-01-29T20:03:29.379Z,13.43
2023-01-29T20:06:19.943Z,16.25
2023-01-29T20:09:08.017Z,14.18
2023-01-29T20:11:55.264Z,15.23
2023-01-29T20:14:48.704Z,14.95
2023-01-29T20:17:35.898Z,16.42
2023-01-29T20:20:24.635Z,14.40
2023-01-29T20:23:31.720Z,16.73
2023-01-29T20:26:24.586Z,9.95
2023-01-29T20:29:12.145Z,15.10
2023-01-29T20:32:00.425Z,15.45
2023-01-29T20:34:52.057Z,14.27
2023-01-29T20:37:40.800Z,14.18
2023-01-29T20:40:28.350Z,13.00
2023-01-29T20:43:15.661Z,13.18
2023-01-29T20:46:03.974Z,13.95
2023-01-29T20:48:54.092Z,14.00
2023-01-29T20:51:42.223Z,13.35
2023-01-29T20:54:33.294Z,10.15
2023-01-29T20:57:21.060Z,13.15
2023-01-29T21:00:09.694Z,12.32
2023-01-29T21:02:57.395Z,14.38
2023-01-29T21:05:44.993Z,14.60
2023-01-29T21:08:32.462Z,11.88
2023-01-29T21:11:21.499Z,11.80
2023-01-29T21:14:08.871Z,14.27
2023-01-29T21:16:56.567Z,13.68
2023-01-29T21:19:44.283Z,13.70
2023-01-29T21:22:31.732Z,14.55
2023-01-29T21:25:20.769Z,13.55
2023-01-29T21:28:09.256Z,14.23
2023-01-29T21:31:04.305Z,12.75
2023-01-29T21:33:51.652Z,13.60
2023-01-29T21:36:39.210Z,14.27
2023-01-29T21:39:26.928Z,15.68
2023-01-29T21:42:31.131Z,14.07
2023-01-29T21:45:20.029Z,13.90
2023-01-29T21:48:07.747Z,16.50
2023-01-29T21:50:55.278Z,14.95
2023-01-29T21:53:42.914Z,12.07
2023-01-29T21:56:30.514Z,14.30
2023-01-29T21:59:18.271Z,14.13
2023-01-29T22:02:10.475Z,14.05
2023-01-29T22:05:16.457Z,14.73
2023-01-29T22:08:05.005Z,12.32
2023-01-29T22:10:52.894Z,16.20
2023-01-29T22:13:40.612Z,15.18
2023-01-29T22:16:29.888Z,13.50
2023-01-29T22:19:18.922Z,14.73
2023-01-29T22:22:07.852Z,15.23
2023-01-29T22:24:56.514Z,15.25
2023-01-29T22:27:43.618Z,14.40
2023-01-29T22:30:31.319Z,15.07
2023-01-29T22:33:18.605Z,13.65
2023-01-29T22:36:08.621Z,12.23
2023-01-29T22:38:55.925Z,15.50
2023-01-29T22:41:43.566Z,13.88
2023-01-29T22:44:31.271Z,16.45
2023-01-29T22:47:18.808Z,14.75
2023-01-29T22:50:07.709Z,14.25
2023-01-29T22:52:56.585Z,15.65
2023-01-29T22:55:44.150Z,15.25
2023-01-29T22:58:31.770Z,15.10
2023-01-29T23:01:20.110Z,15.18
2023-01-29T23:04:07.428Z,17.55
2023-01-29T23:06:55.156Z,16.88
2023-01-29T23:09:43.943Z,15.80
2023-01-29T23:12:31.612Z,16.38
2023-01-29T23:15:19.137Z,15.00
2023-01-29T23:18:06.910Z,17.63
2023-01-29T23:20:57.800Z,15.93
2023-01-29T23:23:45.629Z,14.50
2023-01-29T23:26:51.616Z,15.20
2023-01-29T23:29:38.999Z,16.98
2023-01-29T23:32:26.631Z,16.60
2023-01-29T23:35:14.246Z,15.55
2023-01-29T23:38:01.760Z,15.05
2023-01-29T23:40:49.481Z,17.05
2023-01-29T23:43:38.357Z,16.50
2023-01-29T23:46:25.649Z,16.20
2023-01-29T23:49:13.257Z,17.55
2023-01-29T23:52:00.876Z,16.10
2023-01-29T23:54:48.559Z,19.27
2023-01-29T23:57:36.112Z,16.30
